sensor_id;sensor_type;location;lat;lon;timestamp;pressure;altitude;pressure_sealevel;temperature;humidity
73981;BME280;62348;51.412;5.436;2023-06-14T00:00:17;101243.56;;;19.59;47.27
73981;BME280;62348;51.412;5.436;2023-06-14T00:02:42;101254.03;;;19.57;48.23
73981;BME280;62348;51.412;5.436;2023-06-14T00:05:08;101251.56;;;19.46;48.23
73981;BME280;62348;51.412;5.436;2023-06-14T00:07:35;101249.63;;;19.47;47.36
73981;BME280;62348;51.412;5.436;2023-06-14T00:10:02;101248.63;;;19.43;46.92
73981;BME280;62348;51.412;5.436;2023-06-14T00:12:28;101246.50;;;19.40;48.83
73981;BME280;62348;51.412;5.436;2023-06-14T00:14:54;101241.47;;;19.33;48.10
73981;BME280;62348;51.412;5.436;2023-06-14T00:17:19;101247.75;;;19.34;48.68
73981;BME280;62348;51.412;5.436;2023-06-14T00:19:45;101257.13;;;19.19;48.96
73981;BME280;62348;51.412;5.436;2023-06-14T00:22:11;101255.00;;;19.16;48.23
73981;BME280;62348;51.412;5.436;2023-06-14T00:24:37;101261.31;;;19.16;48.60
73981;BME280;62348;51.412;5.436;2023-06-14T00:27:02;101258.19;;;19.09;49.23
73981;BME280;62348;51.412;5.436;2023-06-14T00:29:28;101258.19;;;19.09;47.20
73981;BME280;62348;51.412;5.436;2023-06-14T00:31:53;101258.59;;;19.02;48.20
73981;BME280;62348;51.412;5.436;2023-06-14T00:34:19;101255.66;;;18.99;46.60
73981;BME280;62348;51.412;5.436;2023-06-14T00:36:44;101259.81;;;18.96;47.45
73981;BME280;62348;51.412;5.436;2023-06-14T00:39:10;101256.06;;;18.92;48.01
73981;BME280;62348;51.412;5.436;2023-06-14T00:41:35;101264.91;;;18.89;46.71
73981;BME280;62348;51.412;5.436;2023-06-14T00:44:00;101263.06;;;18.98;46.86
73981;BME280;62348;51.412;5.436;2023-06-14T00:46:26;101268.03;;;18.96;47.67
73981;BME280;62348;51.412;5.436;2023-06-14T00:48:52;101263.88;;;18.99;45.32
73981;BME280;62348;51.412;5.436;2023-06-14T00:51:17;101264.69;;;18.99;47.06
73981;BME280;62348;51.412;5.436;2023-06-14T00:53:43;101259.53;;;18.98;45.06
73981;BME280;62348;51.412;5.436;2023-06-14T00:56:12;101257.41;;;18.81;47.21
73981;BME280;62348;51.412;5.436;2023-06-14T00:58:39;101258.91;;;18.87;44.49
73981;BME280;62348;51.412;5.436;2023-06-14T01:01:04;101265.34;;;18.82;45.46
73981;BME280;62348;51.412;5.436;2023-06-14T01:03:29;101264.81;;;18.80;45.68
73981;BME280;62348;51.412;5.436;2023-06-14T01:06:05;101260.66;;;18.83;46.06
73981;BME280;62348;51.412;5.436;2023-06-14T01:08:51;101264.69;;;18.85;46.40
73981;BME280;62348;51.412;5.436;2023-06-14T01:11:32;101257.63;;;18.84;45.33
73981;BME280;62348;51.412;5.436;2023-06-14T01:14:03;101265.03;;;18.84;45.55
73981;BME280;62348;51.412;5.436;2023-06-14T01:16:30;101268.38;;;18.81;46.42
73981;BME280;62348;51.412;5.436;2023-06-14T01:18:56;101262.59;;;18.82;44.02
73981;BME280;62348;51.412;5.436;2023-06-14T01:21:24;101261.34;;;18.75;45.20
73981;BME280;62348;51.412;5.436;2023-06-14T01:23:51;101267.34;;;18.77;44.35
73981;BME280;62348;51.412;5.436;2023-06-14T01:26:22;101267.94;;;18.73;45.77
73981;BME280;62348;51.412;5.436;2023-06-14T01:28:48;101263.09;;;18.70;44.09
73981;BME280;62348;51.412;5.436;2023-06-14T01:31:18;101271.41;;;18.65;44.99
73981;BME280;62348;51.412;5.436;2023-06-14T01:33:45;101269.97;;;18.68;44.53
73981;BME280;62348;51.412;5.436;2023-06-14T01:36:12;101262.38;;;18.65;44.08
73981;BME280;62348;51.412;5.436;2023-06-14T01:38:37;101272.19;;;18.66;46.28
73981;BME280;62348;51.412;5.436;2023-06-14T01:41:04;101276.16;;;18.60;45.19
73981;BME280;62348;51.412;5.436;2023-06-14T01:43:30;101269.56;;;18.61;47.09
73981;BME280;62348;51.412;5.436;2023-06-14T01:45:56;101271.78;;;18.59;44.24
73981;BME280;62348;51.412;5.436;2023-06-14T01:48:23;101271.91;;;18.53;46.73
73981;BME280;62348;51.412;5.436;2023-06-14T01:50:49;101260.13;;;18.53;45.16
73981;BME280;62348;51.412;5.436;2023-06-14T01:53:15;101267.63;;;18.47;46.75
73981;BME280;62348;51.412;5.436;2023-06-14T01:55:41;101261.16;;;18.43;44.75
73981;BME280;62348;51.412;5.436;2023-06-14T01:58:08;101259.84;;;18.41;45.11
73981;BME280;62348;51.412;5.436;2023-06-14T02:00:34;101262.28;;;18.42;45.22
73981;BME280;62348;51.412;5.436;2023-06-14T02:03:00;101255.97;;;18.42;44.87
73981;BME280;62348;51.412;5.436;2023-06-14T02:05:25;101260.13;;;18.39;45.98
73981;BME280;62348;51.412;5.436;2023-06-14T02:07:51;101264.19;;;18.28;46.86
73981;BME280;62348;51.412;5.436;2023-06-14T02:10:17;101270.16;;;18.30;45.91
73981;BME280;62348;51.412;5.436;2023-06-14T02:12:43;101265.81;;;18.29;45.82
73981;BME280;62348;51.412;5.436;2023-06-14T02:15:09;101269.44;;;18.24;45.44
73981;BME280;62348;51.412;5.436;2023-06-14T02:17:43;101256.69;;;18.20;45.28
73981;BME280;62348;51.412;5.436;2023-06-14T02:20:08;101260.22;;;18.20;44.95
73981;BME280;62348;51.412;5.436;2023-06-14T02:22:34;101263.97;;;18.10;46.30
73981;BME280;62348;51.412;5.436;2023-06-14T02:25:00;101266.28;;;18.03;46.45
73981;BME280;62348;51.412;5.436;2023-06-14T02:27:25;101263.53;;;18.03;45.89
73981;BME280;62348;51.412;5.436;2023-06-14T02:29:51;101270.94;;;18.03;44.79
73981;BME280;62348;51.412;5.436;2023-06-14T02:32:16;101263.31;;;18.00;46.54
73981;BME280;62348;51.412;5.436;2023-06-14T02:34:41;101278.78;;;17.90;46.74
73981;BME280;62348;51.412;5.436;2023-06-14T02:37:07;101280.72;;;17.90;47.47
73981;BME280;62348;51.412;5.436;2023-06-14T02:39:33;101277.69;;;17.91;47.44
73981;BME280;62348;51.412;5.436;2023-06-14T02:41:58;101272.34;;;17.81;46.94
73981;BME280;62348;51.412;5.436;2023-06-14T02:44:24;101273.56;;;17.75;47.37
73981;BME280;62348;51.412;5.436;2023-06-14T02:46:53;101281.53;;;17.71;47.32
73981;BME280;62348;51.412;5.436;2023-06-14T02:49:19;101279.41;;;17.68;47.18
73981;BME280;62348;51.412;5.436;2023-06-14T02:51:44;101281.03;;;17.69;46.45
73981;BME280;62348;51.412;5.436;2023-06-14T02:54:10;101280.22;;;17.69;47.56
73981;BME280;62348;51.412;5.436;2023-06-14T02:56:36;101282.75;;;17.65;46.46
73981;BME280;62348;51.412;5.436;2023-06-14T02:59:02;101286.06;;;17.62;46.99
73981;BME280;62348;51.412;5.436;2023-06-14T03:01:27;101281.72;;;17.61;50.82
73981;BME280;62348;51.412;5.436;2023-06-14T03:03:59;101282.50;;;17.62;47.15
73981;BME280;62348;51.412;5.436;2023-06-14T03:06:24;101285.41;;;17.51;50.53
73981;BME280;62348;51.412;5.436;2023-06-14T03:08:50;101294.13;;;17.53;51.37
73981;BME280;62348;51.412;5.436;2023-06-14T03:11:16;101290.72;;;17.43;50.94
73981;BME280;62348;51.412;5.436;2023-06-14T03:13:45;101289.13;;;17.42;46.99
73981;BME280;62348;51.412;5.436;2023-06-14T03:16:12;101299.00;;;17.37;49.69
73981;BME280;62348;51.412;5.436;2023-06-14T03:18:37;101300.47;;;17.30;52.15
73981;BME280;62348;51.412;5.436;2023-06-14T03:21:03;101307.53;;;17.36;49.68
73981;BME280;62348;51.412;5.436;2023-06-14T03:23:28;101299.16;;;17.27;52.32
73981;BME280;62348;51.412;5.436;2023-06-14T03:25:53;101300.13;;;17.17;52.93
73981;BME280;62348;51.412;5.436;2023-06-14T03:28:19;101302.84;;;17.17;52.42
73981;BME280;62348;51.412;5.436;2023-06-14T03:30:45;101296.94;;;17.10;52.36
73981;BME280;62348;51.412;5.436;2023-06-14T03:33:10;101300.84;;;17.04;52.56
73981;BME280;62348;51.412;5.436;2023-06-14T03:35:36;101300.91;;;16.99;53.45
73981;BME280;62348;51.412;5.436;2023-06-14T03:38:01;101302.88;;;16.93;53.77
73981;BME280;62348;51.412;5.436;2023-06-14T03:40:28;101303.84;;;16.78;53.63
73981;BME280;62348;51.412;5.436;2023-06-14T03:42:54;101309.66;;;16.72;54.53
73981;BME280;62348;51.412;5.436;2023-06-14T03:45:20;101312.97;;;16.69;54.59
73981;BME280;62348;51.412;5.436;2023-06-14T03:47:46;101309.16;;;16.70;54.35
73981;BME280;62348;51.412;5.436;2023-06-14T03:50:11;101311.16;;;16.59;54.42
73981;BME280;62348;51.412;5.436;2023-06-14T03:52:37;101315.03;;;16.58;55.17
73981;BME280;62348;51.412;5.436;2023-06-14T03:55:03;101313.13;;;16.53;56.61
73981;BME280;62348;51.412;5.436;2023-06-14T03:57:29;101314.78;;;16.54;55.05
73981;BME280;62348;51.412;5.436;2023-06-14T03:59:54;101311.97;;;16.59;51.37
73981;BME280;62348;51.412;5.436;2023-06-14T04:02:20;101313.38;;;16.57;54.40
73981;BME280;62348;51.412;5.436;2023-06-14T04:04:46;101311.97;;;16.59;52.10
73981;BME280;62348;51.412;5.436;2023-06-14T04:07:12;101321.00;;;16.60;54.54
73981;BME280;62348;51.412;5.436;2023-06-14T04:09:38;101315.31;;;16.56;55.64
73981;BME280;62348;51.412;5.436;2023-06-14T04:12:05;101321.09;;;16.50;54.01
73981;BME280;62348;51.412;5.436;2023-06-14T04:14:30;101323.81;;;16.50;54.64
73981;BME280;62348;51.412;5.436;2023-06-14T04:16:58;101321.03;;;16.55;55.01
73981;BME280;62348;51.412;5.436;2023-06-14T04:19:23;101324.63;;;16.50;55.17
73981;BME280;62348;51.412;5.436;2023-06-14T04:21:49;101327.47;;;16.40;56.06
73981;BME280;62348;51.412;5.436;2023-06-14T04:24:14;101332.94;;;16.40;56.50
73981;BME280;62348;51.412;5.436;2023-06-14T04:26:42;101329.97;;;16.36;56.44
73981;BME280;62348;51.412;5.436;2023-06-14T04:29:10;101322.00;;;16.40;56.00
73981;BME280;62348;51.412;5.436;2023-06-14T04:31:40;101326.06;;;16.43;52.63
73981;BME280;62348;51.412;5.436;2023-06-14T04:34:05;101317.88;;;16.43;55.88
73981;BME280;62348;51.412;5.436;2023-06-14T04:36:35;101324.50;;;16.36;56.72
73981;BME280;62348;51.412;5.436;2023-06-14T04:39:03;101333.16;;;16.44;55.94
73981;BME280;62348;51.412;5.436;2023-06-14T04:41:30;101329.41;;;16.39;56.24
73981;BME280;62348;51.412;5.436;2023-06-14T04:43:57;101333.16;;;16.44;56.30
73981;BME280;62348;51.412;5.436;2023-06-14T04:46:30;101331.88;;;16.36;57.72
73981;BME280;62348;51.412;5.436;2023-06-14T04:48:57;101334.22;;;16.48;52.33
73981;BME280;62348;51.412;5.436;2023-06-14T04:51:23;101340.72;;;16.52;52.22
73981;BME280;62348;51.412;5.436;2023-06-14T04:53:57;101338.59;;;16.49;56.86
73981;BME280;62348;51.412;5.436;2023-06-14T04:56:24;101345.94;;;16.48;56.76
73981;BME280;62348;51.412;5.436;2023-06-14T04:58:50;101335.84;;;16.49;55.83
73981;BME280;62348;51.412;5.436;2023-06-14T05:01:15;101344.50;;;16.56;56.99
73981;BME280;62348;51.412;5.436;2023-06-14T05:03:41;101338.41;;;16.64;56.05
73981;BME280;62348;51.412;5.436;2023-06-14T05:06:06;101339.50;;;16.63;55.04
73981;BME280;62348;51.412;5.436;2023-06-14T05:08:32;101343.81;;;16.69;56.92
73981;BME280;62348;51.412;5.436;2023-06-14T05:10:57;101345.41;;;16.75;51.77
73981;BME280;62348;51.412;5.436;2023-06-14T05:13:23;101349.47;;;16.78;51.83
73981;BME280;62348;51.412;5.436;2023-06-14T05:15:48;101349.44;;;16.83;52.37
73981;BME280;62348;51.412;5.436;2023-06-14T05:18:14;101349.31;;;16.93;52.29
73981;BME280;62348;51.412;5.436;2023-06-14T05:20:41;101355.28;;;16.95;52.49
73981;BME280;62348;51.412;5.436;2023-06-14T05:23:09;101366.13;;;17.06;51.31
73981;BME280;62348;51.412;5.436;2023-06-14T05:25:43;101354.34;;;17.05;51.22
73981;BME280;62348;51.412;5.436;2023-06-14T05:28:09;101348.53;;;17.12;52.16
73981;BME280;62348;51.412;5.436;2023-06-14T05:30:34;101353.44;;;17.15;52.25
73981;BME280;62348;51.412;5.436;2023-06-14T05:33:00;101351.50;;;17.15;54.08
73981;BME280;62348;51.412;5.436;2023-06-14T05:35:25;101355.50;;;17.23;51.54
73981;BME280;62348;51.412;5.436;2023-06-14T05:37:52;101365.53;;;17.28;50.88
73981;BME280;62348;51.412;5.436;2023-06-14T05:40:17;101361.13;;;17.32;51.79
73981;BME280;62348;51.412;5.436;2023-06-14T05:42:44;101369.47;;;17.41;49.70
73981;BME280;62348;51.412;5.436;2023-06-14T05:45:09;101366.19;;;17.44;51.11
73981;BME280;62348;51.412;5.436;2023-06-14T05:47:35;101360.56;;;17.54;52.80
73981;BME280;62348;51.412;5.436;2023-06-14T05:50:00;101369.13;;;17.66;51.80
73981;BME280;62348;51.412;5.436;2023-06-14T05:52:26;101366.25;;;17.76;53.84
73981;BME280;62348;51.412;5.436;2023-06-14T05:54:51;101366.63;;;17.89;54.99
73981;BME280;62348;51.412;5.436;2023-06-14T05:57:17;101373.25;;;18.02;52.37
73981;BME280;62348;51.412;5.436;2023-06-14T05:59:42;101373.53;;;18.19;50.41
73981;BME280;62348;51.412;5.436;2023-06-14T06:02:08;101382.53;;;18.39;49.93
73981;BME280;62348;51.412;5.436;2023-06-14T06:04:33;101384.13;;;18.40;49.43
73981;BME280;62348;51.412;5.436;2023-06-14T06:06:58;101385.19;;;18.58;50.47
73981;BME280;62348;51.412;5.436;2023-06-14T06:09:24;101382.16;;;18.73;49.94
73981;BME280;62348;51.412;5.436;2023-06-14T06:11:49;101383.63;;;18.84;48.84
73981;BME280;62348;51.412;5.436;2023-06-14T06:14:15;101391.03;;;18.98;49.56
73981;BME280;62348;51.412;5.436;2023-06-14T06:16:40;101392.88;;;19.16;48.57
73981;BME280;62348;51.412;5.436;2023-06-14T06:19:05;101389.38;;;19.38;46.75
73981;BME280;62348;51.412;5.436;2023-06-14T06:21:31;101388.84;;;19.50;46.65
73981;BME280;62348;51.412;5.436;2023-06-14T06:23:57;101397.16;;;19.59;47.47
73981;BME280;62348;51.412;5.436;2023-06-14T06:26:22;101402.03;;;19.76;46.76
73981;BME280;62348;51.412;5.436;2023-06-14T06:28:48;101396.50;;;19.89;44.78
73981;BME280;62348;51.412;5.436;2023-06-14T06:31:13;101392.47;;;20.09;45.85
73981;BME280;62348;51.412;5.436;2023-06-14T06:33:39;101402.28;;;20.33;46.35
73981;BME280;62348;51.412;5.436;2023-06-14T06:36:05;101401.88;;;20.40;45.15
73981;BME280;62348;51.412;5.436;2023-06-14T06:38:30;101411.31;;;20.56;46.44
73981;BME280;62348;51.412;5.436;2023-06-14T06:40:56;101409.03;;;20.72;44.56
73981;BME280;62348;51.412;5.436;2023-06-14T06:43:21;101414.22;;;20.82;44.00
73981;BME280;62348;51.412;5.436;2023-06-14T06:45:47;101414.91;;;20.88;44.89
73981;BME280;62348;51.412;5.436;2023-06-14T06:48:13;101424.50;;;20.99;44.69
73981;BME280;62348;51.412;5.436;2023-06-14T06:50:38;101423.56;;;21.13;44.84
73981;BME280;62348;51.412;5.436;2023-06-14T06:53:04;101420.84;;;21.30;43.10
73981;BME280;62348;51.412;5.436;2023-06-14T06:55:30;101421.22;;;21.37;42.65
73981;BME280;62348;51.412;5.436;2023-06-14T06:57:56;101417.81;;;21.40;42.38
73981;BME280;62348;51.412;5.436;2023-06-14T07:00:21;101425.66;;;21.56;41.59
73981;BME280;62348;51.412;5.436;2023-06-14T07:02:47;101420.63;;;21.58;42.05
73981;BME280;62348;51.412;5.436;2023-06-14T07:05:13;101415.97;;;21.67;41.84
73981;BME280;62348;51.412;5.436;2023-06-14T07:07:38;101431.81;;;21.79;40.42
73981;BME280;62348;51.412;5.436;2023-06-14T07:10:04;101438.47;;;21.95;42.03
73981;BME280;62348;51.412;5.436;2023-06-14T07:12:31;101434.09;;;22.03;39.98
73981;BME280;62348;51.412;5.436;2023-06-14T07:14:59;101433.75;;;22.13;39.18
73981;BME280;62348;51.412;5.436;2023-06-14T07:17:25;101441.38;;;22.25;40.74
73981;BME280;62348;51.412;5.436;2023-06-14T07:19:50;101435.41;;;22.40;39.75
73981;BME280;62348;51.412;5.436;2023-06-14T07:22:16;101442.84;;;22.49;41.09
73981;BME280;62348;51.412;5.436;2023-06-14T07:24:42;101442.47;;;22.59;40.63
73981;BME280;62348;51.412;5.436;2023-06-14T07:27:08;101445.69;;;22.70;38.67
73981;BME280;62348;51.412;5.436;2023-06-14T07:29:34;101447.25;;;22.88;38.34
73981;BME280;62348;51.412;5.436;2023-06-14T07:32:00;101455.53;;;22.88;38.16
73981;BME280;62348;51.412;5.436;2023-06-14T07:34:25;101455.00;;;22.95;37.90
73981;BME280;62348;51.412;5.436;2023-06-14T07:36:51;101457.13;;;22.98;37.18
73981;BME280;62348;51.412;5.436;2023-06-14T07:39:16;101460.34;;;23.09;37.21
73981;BME280;62348;51.412;5.436;2023-06-14T07:41:42;101457.53;;;23.17;37.38
73981;BME280;62348;51.412;5.436;2023-06-14T07:44:07;101463.53;;;23.19;37.83
73981;BME280;62348;51.412;5.436;2023-06-14T07:46:32;101457.94;;;23.37;37.40
73981;BME280;62348;51.412;5.436;2023-06-14T07:48:59;101468.94;;;23.46;38.10
73981;BME280;62348;51.412;5.436;2023-06-14T07:51:25;101459.44;;;23.55;36.88
73981;BME280;62348;51.412;5.436;2023-06-14T07:53:50;101464.22;;;23.67;37.90
73981;BME280;62348;51.412;5.436;2023-06-14T07:56:16;101459.59;;;23.89;39.11
73981;BME280;62348;51.412;5.436;2023-06-14T07:58:41;101470.06;;;23.95;36.29
73981;BME280;62348;51.412;5.436;2023-06-14T08:01:08;101479.31;;;24.00;37.23
73981;BME280;62348;51.412;5.436;2023-06-14T08:03:33;101479.56;;;24.07;36.68
73981;BME280;62348;51.412;5.436;2023-06-14T08:06:00;101486.44;;;24.22;37.24
73981;BME280;62348;51.412;5.436;2023-06-14T08:08:26;101475.81;;;24.11;35.88
73981;BME280;62348;51.412;5.436;2023-06-14T08:10:51;101482.66;;;24.26;36.88
73981;BME280;62348;51.412;5.436;2023-06-14T08:13:17;101488.31;;;24.30;35.13
73981;BME280;62348;51.412;5.436;2023-06-14T08:15:42;101477.94;;;24.27;36.18
73981;BME280;62348;51.412;5.436;2023-06-14T08:18:08;101475.31;;;24.30;35.94
73981;BME280;62348;51.412;5.436;2023-06-14T08:20:33;101470.88;;;24.38;34.86
73981;BME280;62348;51.412;5.436;2023-06-14T08:23:00;101476.72;;;24.36;34.46
73981;BME280;62348;51.412;5.436;2023-06-14T08:25:26;101470.16;;;24.41;35.13
73981;BME280;62348;51.412;5.436;2023-06-14T08:27:52;101478.06;;;24.51;36.09
73981;BME280;62348;51.412;5.436;2023-06-14T08:30:17;101473.94;;;24.58;35.33
73981;BME280;62348;51.412;5.436;2023-06-14T08:32:43;101468.41;;;24.58;33.52
73981;BME280;62348;51.412;5.436;2023-06-14T08:35:09;101482.03;;;24.63;34.20
73981;BME280;62348;51.412;5.436;2023-06-14T08:37:38;101473.16;;;24.57;33.82
73981;BME280;62348;51.412;5.436;2023-06-14T08:40:19;101475.47;;;24.67;34.36
73981;BME280;62348;51.412;5.436;2023-06-14T08:42:48;101485.84;;;24.70;34.33
73981;BME280;62348;51.412;5.436;2023-06-14T08:45:15;101476.56;;;24.87;34.25
73981;BME280;62348;51.412;5.436;2023-06-14T08:47:41;101471.81;;;24.88;33.33
73981;BME280;62348;51.412;5.436;2023-06-14T08:50:07;101476.22;;;25.01;35.29
73981;BME280;62348;51.412;5.436;2023-06-14T08:52:36;101471.38;;;25.10;33.13
73981;BME280;62348;51.412;5.436;2023-06-14T08:55:06;101468.75;;;25.14;32.49
73981;BME280;62348;51.412;5.436;2023-06-14T08:57:35;101469.41;;;25.11;31.87
73981;BME280;62348;51.412;5.436;2023-06-14T09:00:03;101476.59;;;25.24;32.98
73981;BME280;62348;51.412;5.436;2023-06-14T09:02:37;101470.50;;;25.31;31.55
73981;BME280;62348;51.412;5.436;2023-06-14T09:05:03;101463.94;;;25.36;31.82
73981;BME280;62348;51.412;5.436;2023-06-14T09:07:28;101474.06;;;25.31;31.75
73981;BME280;62348;51.412;5.436;2023-06-14T09:10:16;101472.34;;;25.39;33.05
73981;BME280;62348;51.412;5.436;2023-06-14T09:12:42;101469.00;;;25.33;31.52
73981;BME280;62348;51.412;5.436;2023-06-14T09:15:08;101471.06;;;25.49;32.20
73981;BME280;62348;51.412;5.436;2023-06-14T09:17:40;101472.22;;;25.60;32.07
73981;BME280;62348;51.412;5.436;2023-06-14T09:20:08;101465.50;;;25.74;31.34
73981;BME280;62348;51.412;5.436;2023-06-14T09:22:43;101478.16;;;25.87;30.27
73981;BME280;62348;51.412;5.436;2023-06-14T09:25:09;101472.16;;;25.85;29.64
73981;BME280;62348;51.412;5.436;2023-06-14T09:27:34;101470.19;;;25.85;29.43
73981;BME280;62348;51.412;5.436;2023-06-14T09:30:02;101478.25;;;25.90;28.39
73981;BME280;62348;51.412;5.436;2023-06-14T09:32:28;101491.00;;;25.92;29.02
73981;BME280;62348;51.412;5.436;2023-06-14T09:34:53;101488.56;;;25.78;27.48
73981;BME280;62348;51.412;5.436;2023-06-14T09:37:30;101481.63;;;25.84;29.33
73981;BME280;62348;51.412;5.436;2023-06-14T09:39:56;101484.63;;;25.79;27.69
73981;BME280;62348;51.412;5.436;2023-06-14T09:42:22;101482.16;;;25.89;27.63
73981;BME280;62348;51.412;5.436;2023-06-14T09:44:51;101483.81;;;25.90;27.74
73981;BME280;62348;51.412;5.436;2023-06-14T09:47:17;101475.22;;;26.08;27.63
73981;BME280;62348;51.412;5.436;2023-06-14T09:49:43;101480.09;;;26.11;27.42
73981;BME280;62348;51.412;5.436;2023-06-14T09:52:15;101481.78;;;26.16;26.07
73981;BME280;62348;51.412;5.436;2023-06-14T09:54:43;101483.25;;;26.25;28.05
73981;BME280;62348;51.412;5.436;2023-06-14T09:57:11;101478.53;;;26.26;25.94
73981;BME280;62348;51.412;5.436;2023-06-14T09:59:41;101480.97;;;26.43;27.53
73981;BME280;62348;51.412;5.436;2023-06-14T10:02:22;101474.22;;;26.28;26.35
73981;BME280;62348;51.412;5.436;2023-06-14T10:04:57;101482.03;;;26.39;29.03
73981;BME280;62348;51.412;5.436;2023-06-14T10:07:26;101464.59;;;26.38;26.30
73981;BME280;62348;51.412;5.436;2023-06-14T10:09:55;101471.16;;;26.46;27.52
73981;BME280;62348;51.412;5.436;2023-06-14T10:12:20;101472.88;;;26.51;25.92
73981;BME280;62348;51.412;5.436;2023-06-14T10:14:50;101468.38;;;26.46;27.21
73981;BME280;62348;51.412;5.436;2023-06-14T10:17:44;101460.25;;;26.53;27.53
73981;BME280;62348;51.412;5.436;2023-06-14T10:20:16;101475.81;;;26.58;26.61
73981;BME280;62348;51.412;5.436;2023-06-14T10:23:00;101476.78;;;26.62;26.80
73981;BME280;62348;51.412;5.436;2023-06-14T10:25:31;101470.84;;;26.63;26.33
73981;BME280;62348;51.412;5.436;2023-06-14T10:28:16;101471.44;;;26.57;26.20
73981;BME280;62348;51.412;5.436;2023-06-14T10:31:04;101473.41;;;26.56;25.78
73981;BME280;62348;51.412;5.436;2023-06-14T10:33:34;101465.78;;;26.37;25.40
73981;BME280;62348;51.412;5.436;2023-06-14T10:39:06;101478.69;;;26.33;26.11
73981;BME280;62348;51.412;5.436;2023-06-14T10:41:39;101470.56;;;26.24;26.32
73981;BME280;62348;51.412;5.436;2023-06-14T10:46:40;101478.25;;;26.31;26.09
73981;BME280;62348;51.412;5.436;2023-06-14T10:49:06;101473.09;;;26.29;25.87
73981;BME280;62348;51.412;5.436;2023-06-14T10:51:39;101470.16;;;26.38;27.78
73981;BME280;62348;51.412;5.436;2023-06-14T10:54:14;101473.56;;;26.47;26.87
73981;BME280;62348;51.412;5.436;2023-06-14T10:56:50;101477.13;;;26.48;27.31
73981;BME280;62348;51.412;5.436;2023-06-14T10:59:17;101475.25;;;26.52;27.25
73981;BME280;62348;51.412;5.436;2023-06-14T11:04:34;101475.25;;;26.52;27.15
73981;BME280;62348;51.412;5.436;2023-06-14T11:10:31;101474.91;;;26.54;27.13
73981;BME280;62348;51.412;5.436;2023-06-14T11:13:01;101469.69;;;26.64;28.76
73981;BME280;62348;51.412;5.436;2023-06-14T11:15:30;101473.41;;;26.56;27.24
73981;BME280;62348;51.412;5.436;2023-06-14T11:17:57;101460.50;;;26.48;25.73
73981;BME280;62348;51.412;5.436;2023-06-14T11:20:27;101465.16;;;26.44;27.33
73981;BME280;62348;51.412;5.436;2023-06-14T11:22:53;101468.28;;;26.42;27.39
73981;BME280;62348;51.412;5.436;2023-06-14T11:25:20;101461.94;;;26.42;27.15
73981;BME280;62348;51.412;5.436;2023-06-14T11:27:45;101458.72;;;26.40;26.92
73981;BME280;62348;51.412;5.436;2023-06-14T11:30:12;101461.19;;;26.29;27.65
73981;BME280;62348;51.412;5.436;2023-06-14T11:32:38;101462.25;;;26.24;27.30
73981;BME280;62348;51.412;5.436;2023-06-14T11:35:04;101456.94;;;26.19;27.18
73981;BME280;62348;51.412;5.436;2023-06-14T11:37:31;101455.69;;;26.17;26.79
73981;BME280;62348;51.412;5.436;2023-06-14T11:40:00;101456.03;;;26.15;26.93
73981;BME280;62348;51.412;5.436;2023-06-14T11:42:27;101460.78;;;26.15;26.21
73981;BME280;62348;51.412;5.436;2023-06-14T11:44:54;101467.47;;;26.14;26.64
73981;BME280;62348;51.412;5.436;2023-06-14T11:47:20;101456.75;;;26.12;26.71
73981;BME280;62348;51.412;5.436;2023-06-14T11:49:46;101451.41;;;26.19;27.62
73981;BME280;62348;51.412;5.436;2023-06-14T11:52:12;101452.81;;;26.13;27.66
73981;BME280;62348;51.412;5.436;2023-06-14T11:54:38;101450.19;;;26.04;26.86
73981;BME280;62348;51.412;5.436;2023-06-14T11:57:09;101455.50;;;26.09;28.99
73981;BME280;62348;51.412;5.436;2023-06-14T11:59:38;101457.56;;;26.13;28.94
73981;BME280;62348;51.412;5.436;2023-06-14T12:02:05;101450.16;;;26.17;28.55
73981;BME280;62348;51.412;5.436;2023-06-14T12:04:31;101448.97;;;26.18;29.05
73981;BME280;62348;51.412;5.436;2023-06-14T12:06:57;101451.06;;;26.21;29.54
73981;BME280;62348;51.412;5.436;2023-06-14T12:09:23;101451.41;;;26.19;29.12
73981;BME280;62348;51.412;5.436;2023-06-14T12:11:51;101461.59;;;26.15;28.87
73981;BME280;62348;51.412;5.436;2023-06-14T12:14:28;101451.56;;;26.10;28.15
73981;BME280;62348;51.412;5.436;2023-06-14T12:17:04;101450.75;;;26.10;28.59
73981;BME280;62348;51.412;5.436;2023-06-14T12:19:31;101453.22;;;25.99;28.72
73981;BME280;62348;51.412;5.436;2023-06-14T12:21:59;101452.06;;;26.00;30.07
73981;BME280;62348;51.412;5.436;2023-06-14T12:24:29;101459.00;;;25.94;28.89
73981;BME280;62348;51.412;5.436;2023-06-14T12:26:57;101453.47;;;25.94;28.12
73981;BME280;62348;51.412;5.436;2023-06-14T12:29:25;101450.25;;;25.92;28.90
73981;BME280;62348;51.412;5.436;2023-06-14T12:31:51;101440.53;;;25.86;29.35
73981;BME280;62348;51.412;5.436;2023-06-14T12:34:19;101459.00;;;25.82;28.85
73981;BME280;62348;51.412;5.436;2023-06-14T12:36:44;101460.41;;;25.76;27.79
73981;BME280;62348;51.412;5.436;2023-06-14T12:39:11;101456.72;;;25.71;28.84
73981;BME280;62348;51.412;5.436;2023-06-14T12:41:37;101450.84;;;25.73;30.11
73981;BME280;62348;51.412;5.436;2023-06-14T12:44:02;101449.31;;;25.76;29.15
73981;BME280;62348;51.412;5.436;2023-06-14T12:46:30;101455.88;;;25.83;29.26
73981;BME280;62348;51.412;5.436;2023-06-14T12:48:57;101448.13;;;25.89;30.00
73981;BME280;62348;51.412;5.436;2023-06-14T12:51:22;101450.00;;;25.97;29.04
73981;BME280;62348;51.412;5.436;2023-06-14T12:53:48;101456.00;;;25.87;28.84
73981;BME280;62348;51.412;5.436;2023-06-14T12:56:14;101450.00;;;25.85;28.48
73981;BME280;62348;51.412;5.436;2023-06-14T12:58:41;101458.44;;;25.76;29.59
73981;BME280;62348;51.412;5.436;2023-06-14T13:01:07;101447.34;;;25.76;28.62